createdAt,value
2022-08-08T00:03:59.759Z,1025.0
2022-08-08T00:08:59.968Z,1025.0
2022-08-08T00:14:16.522Z,1025.0
2022-08-08T00:19:00.513Z,1025.0
2022-08-08T00:24:00.753Z,1025.0
2022-08-08T00:29:01.429Z,1025.0
2022-08-08T00:34:17.117Z,1025.0
2022-08-08T00:39:01.535Z,1025.0
2022-08-08T00:44:01.871Z,1025.0
2022-08-08T00:54:13.856Z,1025.0
2022-08-08T00:59:02.668Z,1025.0
2022-08-08T01:04:04.275Z,1025.1
2022-08-08T01:09:36.734Z,1025.1
2022-08-08T01:14:03.265Z,1025.1
2022-08-08T01:19:13.818Z,1025.1
2022-08-08T01:24:13.593Z,1025.1
2022-08-08T01:29:05.672Z,1025.0
2022-08-08T01:34:04.185Z,1025.1
2022-08-08T01:39:04.457Z,1025.1
2022-08-08T01:44:04.666Z,1025.0
2022-08-08T01:49:06.189Z,1025.0
2022-08-08T01:55:45.007Z,1025.1
2022-08-08T01:59:05.370Z,1025.0
2022-08-08T02:04:05.602Z,1025.0
2022-08-08T02:09:17.436Z,1025.0
2022-08-08T02:14:08.007Z,1025.0
2022-08-08T02:19:26.770Z,1024.9
2022-08-08T02:24:06.459Z,1025.0
2022-08-08T02:29:06.644Z,1025.0
2022-08-08T02:34:09.128Z,1025.0
2022-08-08T02:39:41.192Z,1025.0
2022-08-08T02:44:38.658Z,1025.0
2022-08-08T02:49:07.386Z,1025.0
2022-08-08T02:54:07.549Z,1025.0
2022-08-08T02:59:26.152Z,1025.0
2022-08-08T03:05:03.122Z,1025.0
2022-08-08T03:09:08.031Z,1025.0
2022-08-08T03:16:00.544Z,1025.1
2022-08-08T03:19:08.377Z,1025.2
2022-08-08T03:24:08.592Z,1025.1
2022-08-08T03:29:17.011Z,1025.2
2022-08-08T03:34:08.961Z,1025.3
2022-08-08T03:39:15.505Z,1025.2
2022-08-08T03:49:57.633Z,1025.3
2022-08-08T03:54:09.636Z,1025.3
2022-08-08T03:59:09.779Z,1025.3
2022-08-08T04:04:09.970Z,1025.3
2022-08-08T04:09:11.336Z,1025.3
2022-08-08T04:14:34.457Z,1025.3
2022-08-08T04:19:23.935Z,1025.3
2022-08-08T04:29:10.789Z,1025.4
2022-08-08T04:34:10.885Z,1025.4
2022-08-08T04:40:03.306Z,1025.5
2022-08-08T04:44:11.220Z,1025.5
2022-08-08T04:49:11.546Z,1025.6
2022-08-08T04:54:38.274Z,1025.6
2022-08-08T04:59:11.641Z,1025.7
2022-08-08T05:04:13.791Z,1025.7
2022-08-08T05:14:12.736Z,1025.8
2022-08-08T05:20:09.080Z,1025.9
2022-08-08T05:24:12.429Z,1025.9
2022-08-08T05:29:12.577Z,1025.9
2022-08-08T05:34:12.729Z,1026.0
2022-08-08T05:39:13.081Z,1025.9
2022-08-08T05:44:13.061Z,1026.0
2022-08-08T05:49:13.184Z,1026.0
2022-08-08T05:54:27.565Z,1026.1
2022-08-08T05:59:14.065Z,1026.0
2022-08-08T06:04:22.465Z,1026.1
2022-08-08T06:09:59.013Z,1026.1
2022-08-08T06:14:17.949Z,1026.1
2022-08-08T06:19:16.449Z,1026.2
2022-08-08T06:24:22.815Z,1026.2
2022-08-08T06:29:26.452Z,1026.3
2022-08-08T06:34:26.280Z,1026.3
2022-08-08T06:39:17.522Z,1026.4
2022-08-08T06:44:22.877Z,1026.4
2022-08-08T06:49:16.282Z,1026.4
2022-08-08T06:54:17.537Z,1026.5
2022-08-08T06:59:17.282Z,1026.6
2022-08-08T07:04:37.248Z,1026.6
2022-08-08T07:09:20.814Z,1026.6
2022-08-08T07:19:21.235Z,1026.6
2022-08-08T07:24:20.441Z,1026.6
2022-08-08T07:30:00.461Z,1026.7
2022-08-08T07:34:31.340Z,1026.7
2022-08-08T07:39:28.989Z,1026.7
2022-08-08T07:44:40.570Z,1026.7
2022-08-08T07:49:23.824Z,1026.7
2022-08-08T07:54:26.633Z,1026.7
2022-08-08T07:59:25.266Z,1026.8
2022-08-08T08:04:26.140Z,1026.8
2022-08-08T08:09:26.670Z,1026.8
2022-08-08T08:14:29.576Z,1026.7
2022-08-08T08:19:32.076Z,1026.8
2022-08-08T08:24:30.887Z,1026.9
2022-08-08T08:29:29.407Z,1026.8
2022-08-08T08:34:32.259Z,1026.8
2022-08-08T08:39:39.137Z,1026.8
2022-08-08T08:44:31.495Z,1026.8
2022-08-08T08:49:33.906Z,1026.8
2022-08-08T09:00:01.602Z,1026.7
2022-08-08T09:04:39.648Z,1026.7
2022-08-08T09:14:35.534Z,1026.7
2022-08-08T09:21:58.680Z,1026.8
2022-08-08T09:24:36.613Z,1026.7
2022-08-08T09:29:37.302Z,1026.7
2022-08-08T09:34:37.993Z,1026.8
2022-08-08T09:39:38.908Z,1026.7
2022-08-08T09:44:39.672Z,1026.6
2022-08-08T09:49:42.556Z,1026.6
2022-08-08T09:54:41.206Z,1026.6
2022-08-08T10:00:02.412Z,1026.6
2022-08-08T10:04:47.335Z,1026.6
2022-08-08T10:10:00.603Z,1026.6
2022-08-08T10:19:57.659Z,1026.5
2022-08-08T10:24:46.040Z,1026.5
2022-08-08T10:29:58.963Z,1026.5
2022-08-08T10:34:47.755Z,1026.4
2022-08-08T10:39:54.760Z,1026.4
2022-08-08T10:44:50.348Z,1026.4
2022-08-08T10:50:02.258Z,1026.4
2022-08-08T10:54:51.230Z,1026.3
2022-08-08T10:59:52.123Z,1026.3
2022-08-08T11:04:54.109Z,1026.2
2022-08-08T11:09:54.062Z,1026.2
2022-08-08T11:14:54.720Z,1026.1
2022-08-08T11:19:55.554Z,1026.1
2022-08-08T11:24:56.368Z,1026.2
2022-08-08T11:30:18.628Z,1026.1
2022-08-08T11:39:59.103Z,1026.1
2022-08-08T11:44:59.610Z,1026.1
2022-08-08T11:50:00.458Z,1026.0
2022-08-08T11:55:01.286Z,1026.0
2022-08-08T12:05:02.968Z,1025.9
2022-08-08T12:10:08.825Z,1025.8
2022-08-08T12:15:06.575Z,1025.8
2022-08-08T12:25:06.192Z,1025.7
2022-08-08T12:35:17.457Z,1025.7
2022-08-08T12:40:08.761Z,1025.6
2022-08-08T12:45:58.914Z,1025.6
2022-08-08T12:50:10.432Z,1025.6
2022-08-08T12:55:29.103Z,1025.5
2022-08-08T13:00:14.574Z,1025.6
2022-08-08T13:05:15.793Z,1025.5
2022-08-08T13:10:13.872Z,1025.5
2022-08-08T13:15:14.702Z,1025.4
2022-08-08T13:20:15.580Z,1025.4
2022-08-08T13:25:18.825Z,1025.4
2022-08-08T13:30:21.118Z,1025.4
2022-08-08T13:35:25.102Z,1025.3
2022-08-08T13:40:26.650Z,1025.3
2022-08-08T13:45:23.918Z,1025.3
2022-08-08T13:50:37.317Z,1025.2
2022-08-08T13:55:28.902Z,1025.3
2022-08-08T14:00:23.060Z,1025.2
2022-08-08T14:05:27.362Z,1025.2
2022-08-08T14:10:32.930Z,1025.1
2022-08-08T14:15:31.624Z,1025.1
2022-08-08T14:20:55.988Z,1025.0
2022-08-08T14:25:27.042Z,1025.0
2022-08-08T14:30:27.988Z,1025.0
2022-08-08T14:35:35.671Z,1024.9
2022-08-08T14:40:29.976Z,1024.9
2022-08-08T14:45:46.834Z,1024.9
2022-08-08T14:50:38.254Z,1024.8
2022-08-08T14:55:41.257Z,1024.8
2022-08-08T15:00:33.466Z,1024.8
2022-08-08T15:05:52.182Z,1024.8
2022-08-08T15:10:35.232Z,1024.8
2022-08-08T15:16:01.885Z,1024.8
2022-08-08T15:20:38.977Z,1024.8
2022-08-08T15:25:37.851Z,1024.8
2022-08-08T15:30:38.776Z,1024.8
2022-08-08T15:35:39.679Z,1024.9
2022-08-08T15:40:40.593Z,1024.8
2022-08-08T15:45:41.552Z,1024.9
2022-08-08T15:50:42.445Z,1024.8
2022-08-08T15:55:43.579Z,1024.9
2022-08-08T16:00:49.538Z,1024.8
2022-08-08T16:05:53.300Z,1024.8
2022-08-08T16:13:05.030Z,1024.7
2022-08-08T16:15:57.440Z,1024.8
2022-08-08T16:20:51.102Z,1024.8
2022-08-08T16:25:54.685Z,1024.7
2022-08-08T16:30:49.778Z,1024.6
2022-08-08T16:35:50.665Z,1024.7
2022-08-08T16:40:51.650Z,1024.6
2022-08-08T16:46:43.336Z,1024.7
2022-08-08T16:50:53.670Z,1024.7
2022-08-08T17:00:58.114Z,1024.8
2022-08-08T17:05:57.374Z,1024.8
2022-08-08T17:16:00.142Z,1024.9
2022-08-08T17:21:01.569Z,1024.9
2022-08-08T17:26:05.263Z,1024.8
2022-08-08T17:31:39.603Z,1024.8
2022-08-08T17:41:07.872Z,1024.9
2022-08-08T17:46:08.790Z,1024.9
2022-08-08T17:56:11.720Z,1025.0
2022-08-08T18:01:13.209Z,1025.0
2022-08-08T18:06:24.026Z,1025.0
2022-08-08T18:11:16.635Z,1025.1
2022-08-08T18:16:23.431Z,1025.1
2022-08-08T18:21:24.993Z,1025.1
2022-08-08T18:26:19.478Z,1025.2
2022-08-08T18:31:20.529Z,1025.3
2022-08-08T18:36:23.455Z,1025.3
2022-08-08T18:41:51.130Z,1025.4
2022-08-08T18:46:54.197Z,1025.5
2022-08-08T18:51:48.482Z,1025.5
2022-08-08T18:56:24.589Z,1025.7
2022-08-08T19:02:25.150Z,1025.7
2022-08-08T19:06:25.993Z,1025.7
2022-08-08T19:11:26.704Z,1025.8
2022-08-08T19:16:28.474Z,1025.9
2022-08-08T19:21:30.599Z,1026.0
2022-08-08T19:26:31.011Z,1026.1
2022-08-08T19:36:29.815Z,1026.2
2022-08-08T19:41:33.585Z,1026.2
2022-08-08T19:46:33.236Z,1026.3
2022-08-08T19:51:34.528Z,1026.4
2022-08-08T19:56:40.140Z,1026.4
2022-08-08T20:02:02.498Z,1026.5
2022-08-08T20:06:33.221Z,1026.5
2022-08-08T20:11:33.728Z,1026.5
2022-08-08T20:16:37.586Z,1026.5
2022-08-08T20:21:38.171Z,1026.5
2022-08-08T20:32:07.390Z,1026.6
2022-08-08T20:36:38.639Z,1026.7
2022-08-08T20:41:36.789Z,1026.7
2022-08-08T20:46:37.739Z,1026.7
2022-08-08T20:51:39.777Z,1026.6
2022-08-08T21:02:06.770Z,1026.7
2022-08-08T21:06:52.505Z,1026.9
2022-08-08T21:11:51.198Z,1026.8
2022-08-08T21:16:40.100Z,1026.9
2022-08-08T21:21:41.503Z,1026.9
2022-08-08T21:26:40.995Z,1026.9
2022-08-08T21:31:58.471Z,1026.9
2022-08-08T21:36:41.952Z,1026.9
2022-08-08T21:41:43.137Z,1027.0
2022-08-08T21:48:01.300Z,1027.0
2022-08-08T21:54:30.765Z,1027.0
2022-08-08T21:56:43.782Z,1026.9
2022-08-08T22:01:44.227Z,1027.1
2022-08-08T22:06:44.674Z,1027.1
2022-08-08T22:11:45.195Z,1027.2
2022-08-08T22:16:46.782Z,1027.1
2022-08-08T22:21:45.901Z,1027.1
2022-08-08T22:27:01.143Z,1027.2
2022-08-08T22:32:01.554Z,1027.3
2022-08-08T22:36:47.213Z,1027.3
2022-08-08T22:41:49.449Z,1027.3
2022-08-08T22:46:47.937Z,1027.4
2022-08-08T22:51:48.439Z,1027.4
2022-08-08T23:02:03.437Z,1027.4
2022-08-08T23:06:49.568Z,1027.5
2022-08-08T23:12:18.085Z,1027.6
2022-08-08T23:16:57.684Z,1027.6
2022-08-08T23:26:53.304Z,1027.6
2022-08-08T23:31:51.385Z,1027.7
2022-08-08T23:36:51.834Z,1027.7
2022-08-08T23:41:52.142Z,1027.8
2022-08-08T23:49:01.307Z,1027.8
2022-08-08T23:52:07.235Z,1027.8
2022-08-08T23:56:53.530Z,1027.8
